Time;durP1;ratioP1;P1;durP2;ratioP2;P2;SDS_P1;SDS_P2;PMS_P1;PMS_P2;Temp;Humidity;BMP_temperature;BMP_pressure;BME280_temperature;BME280_humidity;BME280_pressure;Samples;Min_cycle;Max_cycle;Signal;HPM_P1;HPM_P2
2022/07/11 00:02:21;;;;;;;26.58;3.47;;;;;;;15.17;100.00;98524.00;5060716;28;20032;-57
2022/07/11 00:04:46;;;;;;;29.95;4.05;;;;;;;14.87;100.00;98522.91;5060653;28;20085;-57
2022/07/11 00:07:13;;;;;;;24.10;3.65;;;;;;;14.83;100.00;98530.09;5061291;28;20029;-57
2022/07/11 00:09:38;;;;;;;25.50;3.85;;;;;;;14.71;100.00;98534.19;5061528;28;20127;-57
2022/07/11 00:12:04;;;;;;;24.77;3.85;;;;;;;14.24;100.00;98529.44;5059999;28;20120;-58
2022/07/11 00:14:30;;;;;;;24.20;3.58;;;;;;;14.18;100.00;98530.56;5061033;28;20173;-58
2022/07/11 00:16:55;;;;;;;24.00;3.50;;;;;;;14.08;100.00;98535.41;5061911;28;20044;-59
2022/07/11 00:19:21;;;;;;;26.30;3.67;;;;;;;14.64;100.00;98527.53;5050659;28;20035;-57
2022/07/11 00:21:47;;;;;;;22.50;3.45;;;;;;;14.47;100.00;98530.97;5059668;28;20044;-57
2022/07/11 00:24:14;;;;;;;20.42;3.10;;;;;;;14.58;100.00;98527.84;5061154;28;20024;-57
2022/07/11 00:26:39;;;;;;;18.63;2.95;;;;;;;14.75;100.00;98527.84;5060504;28;20136;-58
2022/07/11 00:29:05;;;;;;;27.73;4.10;;;;;;;15.01;100.00;98523.06;5060800;28;20405;-57
2022/07/11 00:31:31;;;;;;;22.65;3.53;;;;;;;15.06;100.00;98507.94;5059864;28;20426;-57
2022/07/11 00:33:57;;;;;;;28.02;4.13;;;;;;;15.28;100.00;98518.19;5060221;28;20028;-57
2022/07/11 00:36:23;;;;;;;23.20;3.70;;;;;;;15.09;100.00;98518.31;5060188;28;20115;-58
2022/07/11 00:38:49;;;;;;;21.33;3.67;;;;;;;14.83;100.00;98517.84;5061004;28;20028;-59
2022/07/11 00:41:14;;;;;;;30.20;4.32;;;;;;;15.04;100.00;98510.63;5059519;28;20036;-57
2022/07/11 00:43:40;;;;;;;29.20;4.25;;;;;;;15.29;100.00;98512.03;5060182;28;20450;-57
2022/07/11 00:46:07;;;;;;;26.52;4.10;;;;;;;14.73;100.00;98516.59;5059679;28;20044;-58
2022/07/11 00:48:35;;;;;;;22.90;3.45;;;;;;;14.41;100.00;98524.25;5064537;28;20067;-58
2022/07/11 00:51:02;;;;;;;23.10;3.63;;;;;;;15.33;100.00;98524.06;5059715;28;20047;-58
2022/07/11 00:53:28;;;;;;;32.45;4.43;;;;;;;14.75;100.00;98522.59;5060225;28;20923;-57
2022/07/11 00:55:55;;;;;;;28.10;4.13;;;;;;;14.94;100.00;98526.94;5058590;28;20297;-58
2022/07/11 00:58:21;;;;;;;31.95;4.40;;;;;;;14.60;100.00;98518.97;5059689;28;20084;-58
2022/07/11 01:00:47;;;;;;;23.90;3.63;;;;;;;14.94;100.00;98530.44;5058878;28;20213;-58
2022/07/11 01:03:14;;;;;;;24.60;3.78;;;;;;;14.87;100.00;98530.78;5059876;28;20568;-57
2022/07/11 01:05:39;;;;;;;27.33;4.05;;;;;;;14.88;100.00;98529.88;5058904;28;20048;-56
2022/07/11 01:08:04;;;;;;;25.67;3.50;;;;;;;15.19;100.00;98522.13;5059761;28;20028;-57
2022/07/11 01:10:31;;;;;;;27.17;3.97;;;;;;;14.86;100.00;98521.22;5059358;28;20044;-58
2022/07/11 01:12:56;;;;;;;24.63;3.72;;;;;;;15.41;100.00;98513.16;5059674;28;20119;-57
2022/07/11 01:15:22;;;;;;;24.77;3.95;;;;;;;15.08;100.00;98511.31;5058762;28;20115;-57
2022/07/11 01:17:47;;;;;;;22.02;3.60;;;;;;;15.39;100.00;98502.69;5060444;28;20508;-58
2022/07/11 01:20:12;;;;;;;24.73;3.67;;;;;;;15.18;100.00;98511.69;5058772;28;20051;-57
2022/07/11 01:22:50;;;;;;;30.10;4.18;;;;;;;15.18;100.00;98509.06;5060063;28;20082;-57
2022/07/11 01:25:29;;;;;;;22.38;3.38;;;;;;;15.28;100.00;98506.84;5059019;28;20036;-57
2022/07/11 01:27:57;;;;;;;18.20;3.10;;;;;;;14.92;100.00;98499.91;5059359;28;20031;-57
2022/07/11 01:30:22;;;;;;;22.92;3.85;;;;;;;15.51;100.00;98498.59;5058460;28;20078;-57
2022/07/11 01:32:50;;;;;;;24.98;3.95;;;;;;;15.35;100.00;98503.81;5059577;28;20104;-59
2022/07/11 01:35:16;;;;;;;24.95;3.58;;;;;;;15.05;100.00;98500.97;5058164;28;20127;-57
2022/07/11 01:37:41;;;;;;;22.38;3.75;;;;;;;15.21;100.00;98495.78;5059277;28;20107;-57
2022/07/11 01:40:07;;;;;;;37.13;4.90;;;;;;;15.01;100.00;98504.69;5057955;28;20024;-57
2022/07/11 01:42:33;;;;;;;23.08;3.65;;;;;;;15.02;100.00;98501.16;5058370;28;20049;-57
2022/07/11 01:44:58;;;;;;;22.55;3.60;;;;;;;15.19;100.00;98497.66;5058894;28;20060;-58
2022/07/11 01:47:24;;;;;;;19.52;3.35;;;;;;;15.07;100.00;98499.13;5056963;28;20060;-57
2022/07/11 01:49:49;;;;;;;27.02;4.13;;;;;;;15.18;100.00;98494.19;5057912;28;20391;-57
2022/07/11 01:52:14;;;;;;;24.77;3.90;;;;;;;14.94;100.00;98490.16;5056313;28;20036;-57
2022/07/11 01:54:39;;;;;;;26.92;4.15;;;;;;;15.04;100.00;98483.53;5059469;28;20063;-59
2022/07/11 01:57:05;;;;;;;29.42;4.22;;;;;;;15.19;100.00;98482.72;5059187;28;20041;-59
2022/07/11 01:59:30;;;;;;;22.25;3.50;;;;;;;15.35;100.00;98484.56;5059004;28;20028;-57
2022/07/11 02:01:56;;;;;;;28.70;4.13;;;;;;;15.23;100.00;98484.25;5058005;28;20037;-58
2022/07/11 02:04:21;;;;;;;23.95;3.47;;;;;;;15.51;100.00;98477.56;5060644;28;20023;-59
2022/07/11 02:06:46;;;;;;;20.08;3.50;;;;;;;15.14;100.00;98482.09;5059236;28;20047;-58
2022/07/11 02:09:12;;;;;;;20.85;3.30;;;;;;;15.13;100.00;98482.22;5058996;28;20136;-58
2022/07/11 02:11:37;;;;;;;24.35;4.03;;;;;;;15.22;100.00;98477.31;5058078;28;20727;-59
2022/07/11 02:14:02;;;;;;;26.77;3.95;;;;;;;15.34;100.00;98474.97;5058559;28;20035;-57
2022/07/11 02:16:28;;;;;;;21.77;3.20;;;;;;;15.76;100.00;98476.25;5058044;28;20433;-57
2022/07/11 02:18:53;;;;;;;23.02;3.60;;;;;;;15.52;100.00;98468.72;5058852;28;20028;-57
2022/07/11 02:21:19;;;;;;;25.55;3.97;;;;;;;15.18;100.00;98474.91;5061659;28;20043;-58
2022/07/11 02:23:44;;;;;;;22.98;3.63;;;;;;;15.33;100.00;98474.13;5058948;28;20490;-59
2022/07/11 02:26:10;;;;;;;25.67;3.97;;;;;;;15.78;100.00;98471.75;5056525;28;20036;-57
2022/07/11 02:28:36;;;;;;;24.30;3.90;;;;;;;15.70;100.00;98473.94;5059028;28;20074;-57
2022/07/11 02:31:02;;;;;;;23.70;3.83;;;;;;;15.13;100.00;98475.16;5055826;28;20048;-59
2022/07/11 02:33:28;;;;;;;30.80;4.35;;;;;;;14.91;100.00;98483.31;5058030;28;20021;-57
2022/07/11 02:35:54;;;;;;;24.15;3.83;;;;;;;15.11;100.00;98479.66;5058752;28;20045;-58
2022/07/11 02:38:19;;;;;;;25.83;4.00;;;;;;;15.01;100.00;98479.25;5060062;28;20034;-58
2022/07/11 02:40:45;;;;;;;24.80;3.85;;;;;;;15.12;100.00;98477.88;5056569;28;20036;-58
2022/07/11 02:43:10;;;;;;;27.05;3.97;;;;;;;15.16;100.00;98482.03;5057308;28;20031;-57
2022/07/11 02:45:36;;;;;;;23.20;3.78;;;;;;;14.93;100.00;98491.09;5059304;28;20040;-57
2022/07/11 02:48:01;;;;;;;21.90;3.42;;;;;;;14.92;100.00;98489.41;5059653;28;20111;-57
2022/07/11 02:50:27;;;;;;;31.08;4.22;;;;;;;15.27;100.00;98492.81;5057435;28;20210;-57
2022/07/11 02:52:52;;;;;;;22.35;3.63;;;;;;;15.26;100.00;98492.94;5058706;28;20107;-57
2022/07/11 02:55:17;;;;;;;27.10;4.13;;;;;;;15.35;100.00;98492.44;5057149;28;20025;-57
2022/07/11 02:57:43;;;;;;;25.13;4.20;;;;;;;15.14;100.00;98490.00;5058515;28;20026;-59
2022/07/11 03:00:12;;;;;;;34.20;4.97;;;;;;;14.98;100.00;98492.56;5057975;28;20305;-58
2022/07/11 03:02:38;;;;;;;26.90;4.00;;;;;;;14.69;100.00;98496.66;5058470;28;20098;-58
2022/07/11 03:05:04;;;;;;;27.60;3.85;;;;;;;14.83;100.00;98496.84;5058044;28;20032;-57
2022/07/11 03:07:29;;;;;;;29.40;4.28;;;;;;;14.93;100.00;98485.84;5057792;28;20910;-57
2022/07/11 03:09:55;;;;;;;25.95;3.92;;;;;;;15.32;100.00;98489.97;5057920;28;20032;-58
2022/07/11 03:12:21;;;;;;;21.27;3.47;;;;;;;15.24;100.00;98495.63;5057187;28;20585;-57
2022/07/11 03:14:46;;;;;;;27.50;3.88;;;;;;;15.14;100.00;98500.50;5057359;28;20592;-57
2022/07/11 03:17:12;;;;;;;26.80;4.10;;;;;;;14.74;100.00;98515.69;5057368;28;20044;-59
2022/07/11 03:19:37;;;;;;;23.70;3.97;;;;;;;14.65;100.00;98518.75;5058532;28;20031;-57
2022/07/11 03:22:04;;;;;;;21.50;3.70;;;;;;;14.63;100.00;98520.56;5059665;28;20041;-57
2022/07/11 03:24:29;;;;;;;29.42;4.53;;;;;;;14.58;100.00;98527.84;5061313;28;20029;-57
2022/07/11 03:26:55;;;;;;;26.52;4.22;;;;;;;14.55;100.00;98528.81;5055095;28;20111;-57
2022/07/11 03:29:20;;;;;;;28.52;4.18;;;;;;;14.73;100.00;98537.59;5060987;28;20051;-58
2022/07/11 03:31:45;;;;;;;24.40;3.95;;;;;;;14.56;100.00;98529.69;5060093;28;20032;-57
2022/07/11 03:34:11;;;;;;;20.77;3.67;;;;;;;14.72;100.00;98535.91;5061441;28;20024;-58
2022/07/11 03:36:36;;;;;;;25.55;3.95;;;;;;;14.73;100.00;98548.09;5056694;28;20063;-60
2022/07/11 03:39:02;;;;;;;32.55;4.80;;;;;;;14.64;100.00;98540.66;5059501;28;20096;-57
2022/07/11 03:41:27;;;;;;;26.73;4.35;;;;;;;14.67;100.00;98547.53;5059321;28;20028;-57
2022/07/11 03:43:52;;;;;;;25.92;4.15;;;;;;;14.55;100.00;98543.72;5060197;28;20040;-57
2022/07/11 03:46:18;;;;;;;25.20;3.97;;;;;;;14.56;100.00;98548.91;5060264;28;20059;-58
2022/07/11 03:48:44;;;;;;;17.73;3.47;;;;;;;14.70;100.00;98552.66;5061226;28;20742;-59
2022/07/11 03:51:09;;;;;;;27.77;4.25;;;;;;;14.74;100.00;98554.19;5059664;28;20043;-57
2022/07/11 03:53:35;;;;;;;26.17;4.20;;;;;;;14.44;100.00;98550.31;5060951;28;20043;-57
2022/07/11 03:56:00;;;;;;;25.70;4.03;;;;;;;14.57;100.00;98552.38;5060321;28;20490;-57
2022/07/11 03:58:25;;;;;;;20.50;3.90;;;;;;;14.80;100.00;98546.88;5061588;28;20032;-59
2022/07/11 04:00:51;;;;;;;23.65;3.83;;;;;;;14.61;100.00;98557.44;5060145;28;20189;-58
2022/07/11 04:03:16;;;;;;;29.08;4.45;;;;;;;14.73;100.00;98552.50;5060115;28;20107;-57
2022/07/11 04:05:41;;;;;;;26.15;4.32;;;;;;;14.86;100.00;98553.59;5059257;28;20071;-57
2022/07/11 04:08:07;;;;;;;22.90;3.90;;;;;;;14.76;100.00;98560.22;5059332;28;20059;-57
2022/07/11 04:10:32;;;;;;;21.58;3.85;;;;;;;14.67;100.00;98553.66;5058753;28;20036;-57
2022/07/11 04:12:57;;;;;;;26.85;4.05;;;;;;;15.31;100.00;98543.44;5058132;28;20013;-57
2022/07/11 04:15:23;;;;;;;26.20;4.25;;;;;;;14.65;100.00;98556.34;5059503;28;20073;-57
2022/07/11 04:17:48;;;;;;;22.45;3.88;;;;;;;14.72;100.00;98566.53;5060185;28;20119;-57
2022/07/11 04:20:14;;;;;;;19.27;3.55;;;;;;;14.61;100.00;98564.44;5059557;28;20024;-58
2022/07/11 04:22:39;;;;;;;21.20;3.83;;;;;;;14.90;100.00;98557.75;5060496;28;20029;-58
2022/07/11 04:25:05;;;;;;;27.08;3.92;;;;;;;14.76;100.00;98555.84;5059717;28;20032;-58
2022/07/11 04:27:30;;;;;;;27.73;4.07;;;;;;;14.39;100.00;98562.84;5060023;28;20028;-57
2022/07/11 04:29:56;;;;;;;26.73;3.75;;;;;;;14.81;100.00;98566.09;5057093;28;20082;-57
2022/07/11 04:32:21;;;;;;;21.08;3.40;;;;;;;14.70;100.00;98564.00;5057298;28;20119;-57
2022/07/11 04:34:46;;;;;;;22.70;3.40;;;;;;;15.14;100.00;98571.44;5058741;28;20029;-56
2022/07/11 04:37:12;;;;;;;24.20;3.50;;;;;;;15.12;100.00;98561.94;5061299;28;20028;-56
2022/07/11 04:39:38;;;;;;;24.08;3.85;;;;;;;15.11;100.00;98555.84;5060649;28;20106;-56
2022/07/11 04:42:06;;;;;;;26.42;4.10;;;;;;;14.65;100.00;98569.47;5058907;28;20028;-56
2022/07/11 04:44:32;;;;;;;23.25;3.63;;;;;;;14.68;100.00;98565.84;5059510;28;20543;-55
2022/07/11 04:46:58;;;;;;;19.17;3.20;;;;;;;14.68;100.00;98560.59;5059054;28;20040;-56
2022/07/11 04:49:23;;;;;;;24.20;3.80;;;;;;;15.13;100.00;98559.25;5059574;28;20031;-56
2022/07/11 04:51:48;;;;;;;27.38;4.10;;;;;;;15.22;100.00;98558.78;5058154;28;20033;-57
2022/07/11 04:54:15;;;;;;;22.83;3.50;;;;;;;15.14;100.00;98552.19;5059112;28;20692;-59
2022/07/11 04:56:41;;;;;;;24.70;3.78;;;;;;;15.29;100.00;98540.06;5059296;28;20353;-56
2022/07/11 04:59:07;;;;;;;20.77;3.10;;;;;;;15.06;100.00;98546.50;5060072;28;20970;-56
2022/07/11 05:01:32;;;;;;;25.77;3.45;;;;;;;15.32;100.00;98547.78;5058939;28;20087;-56
2022/07/11 05:03:58;;;;;;;29.77;3.85;;;;;;;15.37;100.00;98548.41;5059269;28;20767;-56
2022/07/11 05:06:23;;;;;;;18.15;2.90;;;;;;;15.57;100.00;98550.84;5059846;28;20036;-56
2022/07/11 05:08:48;;;;;;;21.17;3.17;;;;;;;15.54;100.00;98542.25;5058926;28;20107;-58
2022/07/11 05:11:14;;;;;;;21.52;3.53;;;;;;;16.31;100.00;98541.63;5058163;28;20028;-56
2022/07/11 05:13:40;;;;;;;22.65;3.17;;;;;;;15.59;100.00;98543.72;5059265;28;20598;-57
2022/07/11 05:16:06;;;;;;;21.92;3.35;;;;;;;16.54;100.00;98547.38;5058843;28;20040;-57
2022/07/11 05:18:31;;;;;;;26.15;3.50;;;;;;;16.53;100.00;98550.94;5058505;28;20040;-56
2022/07/11 05:20:57;;;;;;;26.98;3.45;;;;;;;16.86;100.00;98547.34;5058162;28;20493;-57
2022/07/11 05:23:22;;;;;;;19.30;3.15;;;;;;;17.44;100.00;98543.03;5058965;28;20052;-56
2022/07/11 05:25:47;;;;;;;17.60;2.72;;;;;;;16.25;100.00;98554.25;5058221;28;20129;-58
2022/07/11 05:28:13;;;;;;;23.33;3.47;;;;;;;16.60;100.00;98554.06;5058850;28;20039;-58
2022/07/11 05:30:38;;;;;;;17.63;2.80;;;;;;;17.70;100.00;98544.97;5057194;28;20043;-57
2022/07/11 05:33:04;;;;;;;20.92;3.22;;;;;;;17.21;100.00;98552.34;5058392;28;20028;-58
2022/07/11 05:35:29;;;;;;;22.77;3.13;;;;;;;17.57;100.00;98549.28;5057545;28;20024;-58
2022/07/11 05:37:54;;;;;;;14.43;2.65;;;;;;;17.41;100.00;98552.00;5062831;28;20021;-59
2022/07/11 05:40:20;;;;;;;24.10;3.60;;;;;;;16.57;100.00;98553.31;5058179;28;20025;-57
2022/07/11 05:42:45;;;;;;;19.98;3.17;;;;;;;16.64;100.00;98558.25;5058246;28;20063;-58
2022/07/11 05:45:11;;;;;;;21.40;3.35;;;;;;;16.80;100.00;98568.75;5057731;28;20588;-58
2022/07/11 05:47:37;;;;;;;27.35;4.05;;;;;;;16.68;100.00;98571.13;5058785;28;20144;-57
2022/07/11 05:50:03;;;;;;;31.55;4.50;;;;;;;17.04;100.00;98566.50;5058219;28;20608;-58
2022/07/11 05:52:29;;;;;;;21.00;3.15;;;;;;;16.50;100.00;98572.19;5058138;28;20101;-58
2022/07/11 05:54:54;;;;;;;17.98;3.22;;;;;;;16.83;100.00;98568.59;5058262;28;20028;-57
2022/07/11 05:57:20;;;;;;;23.58;3.60;;;;;;;16.88;100.00;98556.84;5054793;28;20043;-59
2022/07/11 05:59:46;;;;;;;23.92;4.15;;;;;;;16.04;100.00;98572.09;5055992;28;20067;-57
2022/07/11 06:02:11;;;;;;;22.13;3.65;;;;;;;16.46;100.00;98573.28;5057311;28;20039;-57
2022/07/11 06:04:36;;;;;;;21.95;3.42;;;;;;;16.63;100.00;98573.19;5057610;28;20032;-58
2022/07/11 06:07:02;;;;;;;22.15;3.35;;;;;;;16.45;100.00;98576.84;5058102;28;20561;-57
2022/07/11 06:09:28;;;;;;;24.20;3.70;;;;;;;16.70;100.00;98582.44;5057747;28;20025;-58
2022/07/11 06:11:53;;;;;;;27.27;3.95;;;;;;;16.56;100.00;98577.13;5056652;28;20485;-60
2022/07/11 06:14:19;;;;;;;18.88;2.92;;;;;;;16.68;100.00;98571.13;5057084;28;20032;-57
2022/07/11 06:16:44;;;;;;;21.85;3.38;;;;;;;16.81;100.00;98573.09;5062076;28;20600;-57
2022/07/11 06:19:09;;;;;;;17.77;2.97;;;;;;;16.27;100.00;98576.94;5058708;28;20102;-58
2022/07/11 06:21:35;;;;;;;21.77;3.50;;;;;;;16.61;100.00;98564.53;5061995;28;20044;-57
2022/07/11 06:24:00;;;;;;;20.45;3.40;;;;;;;17.21;100.00;98565.53;5057445;28;20021;-57
2022/07/11 06:26:26;;;;;;;22.02;3.35;;;;;;;16.92;100.00;98568.06;5057722;28;20052;-58
2022/07/11 06:28:51;;;;;;;22.65;4.07;;;;;;;16.59;100.00;98563.75;5058403;28;20029;-58
2022/07/11 06:31:16;;;;;;;25.63;3.85;;;;;;;16.45;100.00;98576.84;5056174;28;20128;-57
2022/07/11 06:33:42;;;;;;;24.48;4.13;;;;;;;16.66;100.00;98572.19;5055817;28;20112;-57
2022/07/11 06:36:08;;;;;;;29.02;4.38;;;;;;;16.94;100.00;98568.84;5055528;28;20143;-57
2022/07/11 06:38:34;;;;;;;20.63;3.72;;;;;;;16.77;100.00;98570.63;5056772;28;20032;-57
2022/07/11 06:40:59;;;;;;;19.65;3.42;;;;;;;17.37;100.00;98560.19;5053293;28;20067;-57
2022/07/11 06:43:25;;;;;;;22.15;3.67;;;;;;;17.62;100.00;98556.91;5058219;28;20105;-57
2022/07/11 06:45:51;;;;;;;20.27;3.58;;;;;;;17.14;100.00;98554.50;5057680;28;20089;-57
2022/07/11 06:48:16;;;;;;;19.52;3.42;;;;;;;17.67;100.00;98554.84;5057519;28;20421;-57
2022/07/11 06:50:42;;;;;;;19.30;3.30;;;;;;;17.53;100.00;98558.31;5058386;28;20079;-56
2022/07/11 06:53:08;;;;;;;17.38;3.35;;;;;;;17.69;100.00;98552.97;5056792;28;20679;-56
2022/07/11 06:55:33;;;;;;;17.60;3.17;;;;;;;18.29;100.00;98558.03;5061203;28;20052;-57
2022/07/11 06:57:59;;;;;;;21.75;3.70;;;;;;;17.94;100.00;98551.47;5061731;28;20028;-55
2022/07/11 07:00:25;;;;;;;21.50;3.78;;;;;;;18.09;100.00;98556.63;5062195;28;20032;-55
2022/07/11 07:02:50;;;;;;;17.55;3.33;;;;;;;18.09;100.00;98547.88;5063201;28;20038;-56
2022/07/11 07:05:15;;;;;;;18.38;3.40;;;;;;;18.45;100.00;98557.03;5060952;28;20021;-56
2022/07/11 07:07:41;;;;;;;20.02;3.15;;;;;;;18.67;100.00;98546.78;5064379;28;20063;-55
2022/07/11 07:10:07;;;;;;;30.70;4.90;;;;;;;19.27;100.00;98536.66;5062340;28;20024;-56
2022/07/11 07:12:32;;;;;;;16.33;3.25;;;;;;;17.94;100.00;98551.47;5063417;28;20068;-57
2022/07/11 07:15:00;;;;;;;17.52;3.20;;;;;;;18.42;100.00;98557.25;5063264;28;20139;-56
2022/07/11 07:17:25;;;;;;;21.05;3.63;;;;;;;18.40;100.00;98549.41;5062639;28;20201;-56
2022/07/11 07:19:50;;;;;;;17.27;3.30;;;;;;;19.13;100.00;98542.03;5062760;28;20112;-56
2022/07/11 07:22:16;;;;;;;18.95;3.25;;;;;;;18.62;100.00;98548.03;5061093;28;20557;-59
2022/07/11 07:24:45;;;;;;;18.27;3.17;;;;;;;19.17;100.00;98540.88;5063128;28;20582;-59
2022/07/11 07:27:11;;;;;;;13.52;2.70;;;;;;;18.99;100.00;98545.63;5062625;28;20040;-57
2022/07/11 07:29:36;;;;;;;20.65;3.20;;;;;;;19.16;100.00;98553.25;5062209;28;20082;-57
2022/07/11 07:32:02;;;;;;;23.48;3.97;;;;;;;18.25;100.00;98559.16;5059697;28;20040;-56
2022/07/11 07:34:28;;;;;;;19.05;3.45;;;;;;;18.22;100.00;98567.28;5060778;28;20038;-56
2022/07/11 07:36:53;;;;;;;14.15;2.88;;;;;;;18.78;100.00;98553.97;5061144;28;20441;-57
2022/07/11 07:39:19;;;;;;;16.58;3.03;;;;;;;19.48;100.00;98546.72;5064173;28;20086;-57
2022/07/11 07:41:44;;;;;;;14.75;2.83;;;;;;;19.31;100.00;98551.38;5061193;28;20032;-56
2022/07/11 07:44:10;;;;;;;19.83;3.40;;;;;;;19.01;100.00;98555.16;5062935;28;20029;-57
2022/07/11 07:46:36;;;;;;;17.58;3.20;;;;;;;18.77;100.00;98551.47;5061145;28;20501;-56
2022/07/11 07:49:02;;;;;;;15.70;2.97;;;;;;;19.55;100.00;98548.00;5062645;28;20029;-57
2022/07/11 07:51:28;;;;;;;14.25;2.78;;;;;;;18.83;100.00;98553.72;5060995;28;20152;-56
2022/07/11 07:53:54;;;;;;;17.65;2.97;;;;;;;18.55;100.00;98547.56;5061921;28;20038;-57
2022/07/11 07:56:20;;;;;;;17.00;3.15;;;;;;;18.31;100.00;98552.66;5062651;28;20537;-56
2022/07/11 07:58:45;;;;;;;18.60;3.30;;;;;;;19.04;100.00;98538.22;5062245;28;20032;-57
2022/07/11 08:03:55;;;;;;;18.65;3.15;;;;;;;19.84;100.00;98533.59;5062168;28;20102;-57
2022/07/11 08:06:20;;;;;;;13.52;2.60;;;;;;;19.55;100.00;98538.25;5062514;28;20091;-59
2022/07/11 08:08:46;;;;;;;14.30;2.92;;;;;;;18.53;100.00;98541.53;5061698;28;20024;-56
2022/07/11 08:11:11;;;;;;;19.33;3.20;;;;;;;19.57;100.00;98543.44;5061146;28;20331;-57
2022/07/11 08:13:37;;;;;;;21.67;3.50;;;;;;;18.67;100.00;98553.84;5061538;28;20024;-56
2022/07/11 08:16:04;;;;;;;14.98;2.85;;;;;;;19.02;100.00;98545.41;5061594;28;20040;-58
2022/07/11 08:18:29;;;;;;;14.57;2.60;;;;;;;19.55;100.00;98537.41;5061860;28;20040;-58
2022/07/11 08:20:56;;;;;;;15.75;2.70;;;;;;;19.50;100.00;98531.59;5066778;28;20859;-57
2022/07/11 08:23:21;;;;;;;19.95;3.33;;;;;;;19.25;100.00;98535.94;5061869;28;20158;-57
2022/07/11 08:25:47;;;;;;;19.00;3.15;;;;;;;19.72;100.00;98538.88;5061070;28;20044;-57
2022/07/11 08:28:13;;;;;;;15.60;2.75;;;;;;;19.04;100.00;98541.72;5062525;28;20430;-57
2022/07/11 08:30:38;;;;;;;15.70;2.70;;;;;;;19.09;100.00;98541.41;5060943;28;20072;-57
2022/07/11 08:33:03;;;;;;;19.10;3.08;;;;;;;19.40;100.00;98539.31;5056502;28;20024;-57
2022/07/11 08:35:29;;;;;;;16.85;2.70;;;;;;;19.39;100.00;98541.13;5061090;28;20047;-58
2022/07/11 08:37:54;;;;;;;15.15;2.58;;;;;;;19.64;100.00;98542.91;5062106;28;20401;-56
2022/07/11 08:40:20;;;;;;;21.65;3.35;;;;;;;19.06;100.00;98547.75;5060156;28;20804;-56
2022/07/11 08:42:45;;;;;;;14.43;2.58;;;;;;;19.62;100.00;98549.28;5061557;28;20595;-56
2022/07/11 08:45:12;;;;;;;13.82;2.40;;;;;;;18.62;100.00;98543.59;5060679;28;20032;-58
2022/07/11 08:47:39;;;;;;;14.48;2.60;;;;;;;18.94;100.00;98548.56;5061380;28;20684;-57
2022/07/11 08:50:05;;;;;;;27.10;4.15;;;;;;;20.11;100.00;98550.31;5061373;28;20024;-58
2022/07/11 08:52:32;;;;;;;14.25;2.55;;;;;;;19.75;100.00;98549.28;5061866;28;20051;-57
2022/07/11 08:54:58;;;;;;;19.67;3.20;;;;;;;19.39;100.00;98554.38;5060404;28;20032;-57
2022/07/11 08:57:24;;;;;;;17.75;3.00;;;;;;;19.94;100.00;98551.50;5060826;28;20040;-56
2022/07/11 08:59:54;;;;;;;16.80;2.83;;;;;;;19.36;100.00;98548.44;5062057;28;20110;-58
2022/07/11 09:02:21;;;;;;;16.50;2.80;;;;;;;19.84;100.00;98554.78;5061135;28;20037;-58
2022/07/11 09:04:46;;;;;;;14.65;2.53;;;;;;;19.71;100.00;98545.97;5061741;28;20020;-58
2022/07/11 09:07:12;;;;;;;14.38;2.45;;;;;;;19.39;100.00;98554.38;5060657;28;20036;-59
2022/07/11 09:09:38;;;;;;;18.75;2.97;;;;;;;19.19;100.00;98554.88;5060752;28;20036;-57
2022/07/11 09:12:14;;;;;;;14.48;2.53;;;;;;;19.04;100.00;98556.72;5060075;28;20051;-57
2022/07/11 09:14:40;;;;;;;17.17;2.70;;;;;;;18.10;100.00;98565.41;5060888;28;20090;-57
2022/07/11 09:17:06;;;;;;;20.23;2.95;;;;;;;18.18;100.00;98573.69;5060031;28;20041;-57
2022/07/11 09:19:36;;;;;;;16.88;2.70;;;;;;;18.65;100.00;98575.06;5061110;28;20028;-57
2022/07/11 09:27:50;;;;;;;15.20;2.55;;;;;;;17.78;100.00;98599.88;5060712;28;20678;-57
2022/07/11 09:30:21;;;;;;;20.63;3.03;;;;;;;17.42;100.00;98603.78;5058861;28;20036;-57
2022/07/11 09:32:56;;;;;;;20.27;3.05;;;;;;;17.85;100.00;98603.88;5061206;28;20685;-59
2022/07/11 09:35:24;;;;;;;14.70;2.50;;;;;;;17.32;100.00;98611.41;5059872;28;20020;-57
2022/07/11 09:37:49;;;;;;;17.10;2.50;;;;;;;17.29;100.00;98610.72;5060632;28;20020;-58
2022/07/11 09:40:17;;;;;;;17.98;2.88;;;;;;;17.21;100.00;98600.66;5060206;28;20032;-59
2022/07/11 09:42:50;;;;;;;22.35;2.78;;;;;;;17.32;100.00;98607.94;5061506;28;20580;-59
2022/07/11 09:45:16;;;;;;;18.55;2.67;;;;;;;16.84;100.00;98615.09;5060323;28;20028;-57
2022/07/11 09:47:50;;;;;;;18.33;2.83;;;;;;;17.64;100.00;98611.25;5060970;28;20561;-57
2022/07/11 09:50:19;;;;;;;18.10;2.70;;;;;;;17.53;100.00;98600.50;5059988;28;20489;-58
2022/07/11 09:53:06;;;;;;;14.85;2.50;;;;;;;18.45;100.00;98594.00;5059713;28;20054;-57
2022/07/11 09:55:35;;;;;;;16.63;2.65;;;;;;;18.61;100.00;98591.25;5060107;28;20028;-58
2022/07/11 09:58:09;;;;;;;14.95;2.42;;;;;;;19.99;100.00;98583.78;5060740;28;20056;-57
2022/07/11 10:00:37;;;;;;;15.63;2.47;;;;;;;19.47;100.00;98574.16;5059635;28;20036;-57
2022/07/11 10:03:03;;;;;;;14.25;2.60;;;;;;;19.49;100.00;98578.38;5060401;28;20032;-60
2022/07/11 10:05:30;;;;;;;14.65;2.40;;;;;;;19.20;100.00;98585.63;5059235;28;20032;-58
2022/07/11 10:07:57;;;;;;;20.58;3.00;;;;;;;19.90;100.00;98576.50;5059684;28;20578;-58
2022/07/11 10:10:23;;;;;;;12.50;2.38;;;;;;;19.71;100.00;98587.50;5059373;28;20489;-58
2022/07/11 10:12:51;;;;;;;14.23;2.53;;;;;;;19.40;100.00;98590.41;5060794;28;20021;-58
2022/07/11 10:15:42;;;;;;;16.83;2.78;;;;;;;19.89;100.00;98582.72;5059999;28;20051;-57
2022/07/11 10:18:40;;;;;;;14.57;2.30;;;;;;;18.90;100.00;98584.09;5059763;28;20518;-58
2022/07/11 10:21:20;;;;;;;18.33;2.63;;;;;;;18.75;100.00;98582.41;5058850;28;20064;-58
2022/07/11 10:24:02;;;;;;;17.02;2.72;;;;;;;19.49;100.00;98578.38;5060694;28;20028;-57
2022/07/11 10:26:47;;;;;;;15.55;2.47;;;;;;;18.93;100.00;98581.25;5059433;28;20029;-57
2022/07/11 10:29:52;;;;;;;15.40;2.50;;;;;;;20.46;100.00;98574.25;5059678;28;20033;-57
2022/07/11 10:32:19;;;;;;;13.45;2.40;;;;;;;19.78;100.00;98586.16;5033710;28;20036;-57
2022/07/11 10:34:46;;;;;;;17.30;2.50;;;;;;;19.10;100.00;98585.41;5054372;28;20052;-57
2022/07/11 10:37:12;;;;;;;15.60;2.55;;;;;;;18.94;100.00;98590.88;5054364;28;20040;-57
2022/07/11 10:39:38;;;;;;;11.93;2.08;;;;;;;19.55;100.00;98585.88;5060489;28;20881;-57
2022/07/11 10:42:05;;;;;;;18.67;3.05;;;;;;;19.91;100.00;98586.13;5059165;28;20033;-57
2022/07/11 10:44:51;;;;;;;17.77;2.67;;;;;;;20.09;100.00;98583.97;5059615;28;20033;-57
2022/07/11 10:47:42;;;;;;;12.32;2.38;;;;;;;19.80;100.00;98585.06;5058915;28;20078;-57
2022/07/11 10:50:28;;;;;;;21.70;3.47;;;;;;;19.43;100.00;98592.03;5059291;28;20017;-58
2022/07/11 10:52:56;;;;;;;14.13;2.45;;;;;;;19.77;100.00;98593.22;5059662;28;20645;-59
2022/07/11 10:55:34;;;;;;;14.38;2.45;;;;;;;20.36;100.00;98587.31;5059064;28;20064;-59
2022/07/11 10:58:08;;;;;;;15.32;2.65;;;;;;;20.79;100.00;98586.03;5061370;28;20143;-59
2022/07/11 11:00:34;;;;;;;15.48;2.60;;;;;;;19.41;100.00;98594.78;5058947;28;20686;-58
2022/07/11 11:03:12;;;;;;;16.08;2.70;;;;;;;20.51;100.00;98588.03;5060354;28;20031;-59
2022/07/11 11:05:52;;;;;;;19.08;2.80;;;;;;;20.01;100.00;98593.31;5059269;28;20453;-59
2022/07/11 11:11:23;;;;;;;13.13;2.30;;;;;;;20.44;100.00;98586.78;5058668;28;20585;-57
2022/07/11 11:14:28;;;;;;;20.25;2.97;;;;;;;20.36;100.00;98582.00;5059569;28;20553;-58
2022/07/11 11:16:54;;;;;;;15.52;2.60;;;;;;;20.23;100.00;98587.34;5059044;28;20044;-57
2022/07/11 11:19:56;;;;;;;16.48;2.60;;;;;;;20.18;100.00;98588.63;5059756;28;20078;-58
2022/07/11 11:22:24;;;;;;;15.15;2.65;;;;;;;19.00;100.00;98601.03;5059120;28;20044;-58
2022/07/11 11:24:55;;;;;;;18.88;2.97;;;;;;;19.44;100.00;98597.19;5059747;28;20029;-58
2022/07/11 11:27:25;;;;;;;16.97;2.77;;;;;;;19.94;100.00;98601.78;5058527;28;20041;-57
2022/07/11 11:29:55;;;;;;;15.43;2.45;;;;;;;19.64;100.00;98589.72;5057347;28;20029;-57